Time;durP1;ratioP1;P1;durP2;ratioP2;P2;SDS_P1;SDS_P2;PMS_P1;PMS_P2;Temp;Humidity;BMP_temperature;BMP_pressure;BME280_temperature;BME280_humidity;BME280_pressure;Samples;Min_cycle;Max_cycle;Signal;HPM_P1;HPM_P2
2024/03/16 00:00:41;;;;;;;13.10;7.28;;;;;;;9.29;100.00;100707.31;6128117;23;20016;-74
2024/03/16 00:03:07;;;;;;;13.95;7.25;;;;;;;9.31;100.00;100701.72;6124412;23;20021;-74
2024/03/16 00:05:32;;;;;;;12.10;7.45;;;;;;;9.31;100.00;100712.41;6125753;23;20023;-74
2024/03/16 00:07:58;;;;;;;13.15;7.65;;;;;;;9.32;100.00;100706.00;6125151;23;20095;-75
2024/03/16 00:10:24;;;;;;;13.80;7.25;;;;;;;9.32;100.00;100708.66;6102376;23;20734;-73
2024/03/16 00:12:49;;;;;;;14.93;7.28;;;;;;;9.32;100.00;100697.97;6150469;23;20363;-75
2024/03/16 00:15:15;;;;;;;14.80;7.50;;;;;;;9.35;100.00;100701.97;6126276;23;20017;-75
2024/03/16 00:17:41;;;;;;;13.43;7.25;;;;;;;9.36;100.00;100708.94;6103315;23;20075;-78
2024/03/16 00:20:11;;;;;;;13.00;6.97;;;;;;;9.37;100.00;100706.00;6178316;23;20394;-78
2024/03/16 00:22:40;;;;;;;15.43;6.78;;;;;;;9.34;100.00;100706.53;6151031;23;20100;-76
2024/03/16 00:25:06;;;;;;;14.85;7.57;;;;;;;9.36;100.00;100712.44;6126173;23;20484;-74
2024/03/16 00:27:33;;;;;;;13.65;7.70;;;;;;;9.40;100.00;100704.66;6149550;23;20036;-75
2024/03/16 00:29:59;;;;;;;13.90;7.85;;;;;;;9.42;100.00;100708.72;6102251;23;20095;-79
2024/03/16 00:32:25;;;;;;;12.35;7.80;;;;;;;9.43;100.00;100704.97;6126434;23;20067;-77
2024/03/16 00:34:50;;;;;;;14.20;7.88;;;;;;;9.41;100.00;100695.59;6151201;23;20276;-75
2024/03/16 00:37:16;;;;;;;14.25;8.07;;;;;;;9.42;100.00;100700.69;6101967;23;20009;-78
2024/03/16 00:39:42;;;;;;;17.65;8.20;;;;;;;9.44;100.00;100711.91;6103323;23;20016;-77
2024/03/16 00:42:09;;;;;;;13.45;7.72;;;;;;;9.46;100.00;100699.09;6126463;23;20070;-76
2024/03/16 00:44:39;;;;;;;16.42;8.82;;;;;;;9.50;100.00;100705.53;6126309;23;20112;-75
2024/03/16 00:47:05;;;;;;;22.80;9.95;;;;;;;9.54;100.00;100701.25;6100772;23;20025;-77
2024/03/16 00:49:31;;;;;;;16.90;8.63;;;;;;;9.56;100.00;100704.47;6150944;23;20029;-77
2024/03/16 00:51:59;;;;;;;17.48;9.32;;;;;;;9.57;100.00;100698.06;6149555;23;20095;-75
2024/03/16 00:54:25;;;;;;;19.52;9.85;;;;;;;9.62;100.00;100701.78;6123744;23;20598;-75
2024/03/16 00:56:51;;;;;;;16.60;9.63;;;;;;;9.64;100.00;100700.47;6125660;23;20040;-76
2024/03/16 00:59:18;;;;;;;19.98;10.05;;;;;;;9.67;100.00;100691.09;6096496;23;20582;-76
2024/03/16 01:01:44;;;;;;;19.52;9.73;;;;;;;9.69;100.00;100694.34;6145167;23;20017;-76
2024/03/16 01:04:10;;;;;;;17.90;10.43;;;;;;;9.72;100.00;100694.59;6120010;23;20028;-77
2024/03/16 01:06:36;;;;;;;20.23;10.73;;;;;;;9.75;100.00;100683.38;6095847;23;20043;-78
2024/03/16 01:09:02;;;;;;;21.23;11.90;;;;;;;9.77;100.00;100683.13;6119222;23;20020;-77
2024/03/16 01:11:29;;;;;;;21.15;12.02;;;;;;;9.77;100.00;100683.91;6144038;23;20033;-76
2024/03/16 01:13:54;;;;;;;;;;;;;;;9.77;100.00;100678.56;6169054;23;20025;-76
2024/03/16 01:16:21;;;;;;;19.58;12.45;;;;;;;9.75;100.00;100679.88;6118900;23;20515;-77
2024/03/16 01:18:46;;;;;;;21.17;12.50;;;;;;;9.76;100.00;100681.53;6095199;23;20020;-78
2024/03/16 01:21:12;;;;;;;21.17;13.25;;;;;;;9.78;100.00;100680.19;6095362;23;20013;-78
2024/03/16 01:23:38;;;;;;;22.88;12.35;;;;;;;9.80;100.00;100677.22;6143348;23;20017;-78
2024/03/16 01:26:05;;;;;;;23.08;13.52;;;;;;;9.85;100.00;100678.03;6095651;23;20495;-78
2024/03/16 01:28:32;;;;;;;20.75;12.98;;;;;;;9.89;100.00;100675.66;6119913;23;20491;-78
2024/03/16 01:30:58;;;;;;;21.20;13.00;;;;;;;9.90;100.00;100677.25;6118939;23;20037;-74
2024/03/16 01:33:25;;;;;;;21.23;12.35;;;;;;;9.91;100.00;100675.38;6090659;23;20017;-74
2024/03/16 01:35:50;;;;;;;23.33;12.40;;;;;;;9.92;100.00;100675.09;6141393;23;20018;-74
2024/03/16 01:38:16;;;;;;;22.73;13.43;;;;;;;9.92;100.00;100663.59;6092774;23;20028;-76
2024/03/16 01:40:45;;;;;;;25.08;13.30;;;;;;;9.89;100.00;100675.66;6145270;23;20920;-74
2024/03/16 01:43:12;;;;;;;23.17;12.85;;;;;;;9.89;100.00;100672.97;6167537;23;20104;-76
2024/03/16 01:45:39;;;;;;;22.23;14.43;;;;;;;9.87;100.00;100671.63;6143103;23;20088;-74
2024/03/16 01:48:09;;;;;;;26.20;14.45;;;;;;;9.83;100.00;100679.38;6142318;23;20104;-75
2024/03/16 01:50:41;;;;;;;23.50;14.82;;;;;;;9.76;100.00;100660.94;6142210;23;20021;-75
2024/03/16 01:53:14;;;;;;;21.80;13.63;;;;;;;9.74;100.00;100665.72;6093327;23;20023;-75
2024/03/16 01:55:39;;;;;;;26.40;12.95;;;;;;;9.70;100.00;100664.66;6144606;23;20096;-75
2024/03/16 01:58:08;;;;;;;23.55;13.45;;;;;;;9.68;100.00;100674.00;6144985;23;20772;-76
2024/03/16 02:00:34;;;;;;;23.25;14.52;;;;;;;9.67;100.00;100677.75;6143668;23;20526;-74
2024/03/16 02:03:00;;;;;;;23.92;14.52;;;;;;;9.65;100.00;100674.53;6143838;23;20017;-78
2024/03/16 02:05:26;;;;;;;27.02;15.02;;;;;;;9.64;100.00;100668.38;6144132;23;20041;-73
2024/03/16 02:07:52;;;;;;;22.38;14.20;;;;;;;9.62;100.00;100667.84;6118571;23;20041;-76
2024/03/16 02:10:18;;;;;;;22.75;14.23;;;;;;;9.60;100.00;100671.84;6118925;23;20457;-75
2024/03/16 02:12:44;;;;;;;22.92;14.50;;;;;;;9.61;100.00;100668.09;6143460;23;20671;-77
2024/03/16 02:15:10;;;;;;;22.75;13.98;;;;;;;9.61;100.00;100666.22;6143222;23;20105;-74
2024/03/16 02:17:37;;;;;;;;;;;;;;;9.63;100.00;100665.97;6094612;23;20332;-74
2024/03/16 02:20:26;;;;;;;25.35;14.98;;;;;;;9.62;100.00;100667.03;6143313;23;19909;-76
2024/03/16 02:22:50;;;;;;;23.17;13.57;;;;;;;9.62;100.00;100656.34;6143490;23;20045;-75
2024/03/16 02:25:18;;;;;;;;;;;;;;;9.63;100.00;100663.31;6144776;23;20352;-77
2024/03/16 02:27:43;;;;;;;22.20;13.35;;;;;;;9.60;100.00;100666.50;6143247;23;20314;-74
2024/03/16 02:30:10;;;;;;;24.17;14.07;;;;;;;9.64;100.00;100673.75;6093174;23;20052;-74
2024/03/16 02:32:37;;;;;;;23.15;14.63;;;;;;;9.64;100.00;100657.69;6094204;23;20077;-75
2024/03/16 02:35:03;;;;;;;28.58;15.10;;;;;;;9.66;100.00;100670.78;6142765;23;20340;-75
2024/03/16 02:37:28;;;;;;;24.73;15.82;;;;;;;9.66;100.00;100668.13;6118746;23;20077;-73
2024/03/16 02:39:55;;;;;;;24.48;14.48;;;;;;;9.66;100.00;100670.78;6143787;23;20891;-75
2024/03/16 02:42:21;;;;;;;24.05;15.77;;;;;;;9.66;100.00;100670.78;6118469;23;20715;-78
2024/03/16 02:44:47;;;;;;;26.45;16.25;;;;;;;9.66;100.00;100668.13;6145674;23;20028;-75
2024/03/16 02:47:13;;;;;;;25.98;15.48;;;;;;;9.66;100.00;100671.59;6119279;23;20022;-75
2024/03/16 02:49:40;;;;;;;27.08;15.90;;;;;;;9.65;100.00;100661.16;6095747;23;20404;-76
2024/03/16 02:52:06;;;;;;;28.88;16.95;;;;;;;9.64;100.00;100672.94;6094251;23;20020;-76
2024/03/16 02:54:31;;;;;;;27.17;15.85;;;;;;;9.67;100.00;100662.50;6094850;23;20013;-76
2024/03/16 02:56:57;;;;;;;27.02;16.55;;;;;;;9.69;100.00;100667.59;6143049;23;20009;-76
2024/03/16 02:59:23;;;;;;;29.45;17.27;;;;;;;9.72;100.00;100675.09;6122055;23;20036;-76
2024/03/16 03:01:48;;;;;;;28.40;16.27;;;;;;;9.74;100.00;100667.59;6147692;23;20483;-78
2024/03/16 03:04:17;;;;;;;26.42;15.93;;;;;;;9.75;100.00;100669.19;6147373;23;20021;-77
2024/03/16 03:06:43;;;;;;;27.00;16.92;;;;;;;9.77;100.00;100673.22;6124525;23;20016;-79
2024/03/16 03:09:09;;;;;;;27.80;16.38;;;;;;;9.78;100.00;100679.38;6148241;23;20020;-77
2024/03/16 03:11:37;;;;;;;26.20;17.23;;;;;;;9.79;100.00;100668.41;6123123;23;20075;-78
2024/03/16 03:14:04;;;;;;;31.73;16.45;;;;;;;9.82;100.00;100669.72;6173286;23;20189;-77
2024/03/16 03:16:30;;;;;;;28.27;16.45;;;;;;;9.83;100.00;100672.16;6148700;23;20009;-77
2024/03/16 03:18:55;;;;;;;23.92;16.25;;;;;;;9.85;100.00;100675.38;6123587;23;20062;-76
2024/03/16 03:21:21;;;;;;;26.95;17.52;;;;;;;9.88;100.00;100673.22;6147742;23;20020;-79
2024/03/16 03:23:47;;;;;;;23.25;15.82;;;;;;;9.88;100.00;100670.53;6099016;23;20100;-77
2024/03/16 03:26:13;;;;;;;33.50;18.40;;;;;;;9.88;100.00;100674.03;6098654;23;20147;-80
2024/03/16 03:28:39;;;;;;;26.75;16.67;;;;;;;9.89;100.00;100670.31;6121852;23;20024;-78
2024/03/16 03:31:06;;;;;;;24.63;16.27;;;;;;;9.87;100.00;100672.41;6148090;23;20134;-78
2024/03/16 03:33:32;;;;;;;26.33;14.98;;;;;;;9.89;100.00;100674.81;6147639;23;20017;-79
2024/03/16 03:35:59;;;;;;;25.80;15.70;;;;;;;9.89;100.00;100675.66;6124797;23;20013;-77
2024/03/16 03:38:25;;;;;;;27.95;16.10;;;;;;;9.90;100.00;100671.91;6099401;23;20021;-78
2024/03/16 03:40:50;;;;;;;28.25;15.25;;;;;;;9.90;100.00;100671.09;6124793;23;20013;-75
2024/03/16 03:43:22;;;;;;;25.92;15.43;;;;;;;9.93;100.00;100671.34;6148356;23;20013;-78
2024/03/16 03:45:52;;;;;;;27.25;15.52;;;;;;;9.91;100.00;100676.19;6124944;23;20837;-77
2024/03/16 03:50:52;;;;;;;25.70;14.43;;;;;;;9.88;100.00;100666.00;6173340;23;20020;-77
2024/03/16 03:53:20;;;;;;;24.77;16.00;;;;;;;9.84;100.00;100664.94;6098153;23;20017;-76
2024/03/16 03:55:46;;;;;;;26.90;14.68;;;;;;;9.80;100.00;100671.88;6175916;23;20021;-75
2024/03/16 03:58:12;;;;;;;28.33;16.35;;;;;;;9.78;100.00;100664.13;6099648;23;20041;-77
2024/03/16 04:00:38;;;;;;;27.05;14.05;;;;;;;9.75;100.00;100666.53;6150281;23;20005;-77
2024/03/16 04:03:06;;;;;;;;;;;;;;;9.74;100.00;100662.25;6124493;23;20354;-76
2024/03/16 04:05:35;;;;;;;27.10;14.25;;;;;;;9.75;100.00;100669.19;6100900;23;19938;-75
2024/03/16 04:08:01;;;;;;;30.58;15.60;;;;;;;9.75;100.00;100674.53;6149554;23;20021;-77
2024/03/16 04:10:27;;;;;;;23.83;12.88;;;;;;;9.75;100.00;100675.34;6100441;23;20056;-75
2024/03/16 04:12:52;;;;;;;22.67;13.65;;;;;;;9.79;100.00;100670.28;6124890;23;20017;-77
2024/03/16 04:15:18;;;;;;;24.15;13.05;;;;;;;9.79;100.00;100671.06;6150433;23;20124;-77
2024/03/16 04:17:44;;;;;;;22.63;12.20;;;;;;;9.81;100.00;100665.47;6148950;23;20064;-76
2024/03/16 04:20:12;;;;;;;21.33;12.23;;;;;;;9.80;100.00;100663.84;6147164;23;20009;-76
2024/03/16 04:22:42;;;;;;;26.27;11.38;;;;;;;9.82;100.00;100667.88;6099629;23;20680;-75
2024/03/16 04:25:09;;;;;;;21.58;12.27;;;;;;;9.84;100.00;100664.94;6125735;23;20016;-76
2024/03/16 04:27:35;;;;;;;23.25;10.75;;;;;;;9.88;100.00;100667.88;6149993;23;20021;-74
2024/03/16 04:30:01;;;;;;;;;;;;;;;9.90;100.00;100671.09;6102537;23;20016;-74
2024/03/16 04:32:28;;;;;;;21.77;10.57;;;;;;;9.90;100.00;100668.44;6149134;23;19912;-75
2024/03/16 04:34:54;;;;;;;17.40;10.90;;;;;;;9.88;100.00;100663.31;6149978;23;20104;-74
2024/03/16 04:37:21;;;;;;;22.80;10.90;;;;;;;9.90;100.00;100674.59;6175347;23;20477;-75
2024/03/16 04:39:47;;;;;;;29.63;9.70;;;;;;;9.89;100.00;100672.97;6151671;23;20009;-75
2024/03/16 04:42:14;;;;;;;22.67;9.68;;;;;;;9.88;100.00;100668.66;6124506;23;20029;-74
2024/03/16 04:44:40;;;;;;;20.38;9.55;;;;;;;9.88;100.00;100671.34;6126174;23;20040;-74
2024/03/16 04:47:06;;;;;;;23.10;10.35;;;;;;;9.87;100.00;100671.63;6101296;23;20048;-73
2024/03/16 04:49:32;;;;;;;21.77;9.13;;;;;;;9.88;100.00;100678.56;6150287;23;20448;-74
2024/03/16 04:51:59;;;;;;;21.13;9.73;;;;;;;9.87;100.00;100672.41;6125420;23;20013;-74
2024/03/16 04:54:25;;;;;;;24.58;9.65;;;;;;;9.88;100.00;100674.03;6149266;23;20021;-73
2024/03/16 04:56:51;;;;;;;22.75;9.65;;;;;;;9.89;100.00;100680.16;6150675;23;20051;-74
2024/03/16 04:59:18;;;;;;;24.42;10.13;;;;;;;9.89;100.00;100680.16;6144711;23;20017;-74
2024/03/16 05:01:45;;;;;;;25.35;9.32;;;;;;;9.88;100.00;100671.34;6120488;23;20076;-75
2024/03/16 05:04:12;;;;;;;21.98;10.20;;;;;;;9.87;100.00;100677.78;6096275;23;20014;-73
2024/03/16 05:06:40;;;;;;;22.80;9.80;;;;;;;9.87;100.00;100682.31;6121207;23;20021;-75
2024/03/16 05:09:06;;;;;;;22.75;9.18;;;;;;;9.83;100.00;100677.50;6144624;23;20022;-75
2024/03/16 05:11:32;;;;;;;20.08;10.15;;;;;;;9.81;100.00;100678.84;6145412;23;20032;-75
2024/03/16 05:13:59;;;;;;;22.45;9.35;;;;;;;9.79;100.00;100678.31;6147366;23;20017;-76
2024/03/16 05:16:25;;;;;;;27.17;10.65;;;;;;;9.75;100.00;100670.00;6167087;23;20013;-73
2024/03/16 05:18:50;;;;;;;21.27;8.52;;;;;;;9.71;100.00;100676.16;6145473;23;20940;-73
2024/03/16 05:21:16;;;;;;;20.08;9.18;;;;;;;9.72;100.00;100680.44;6120967;23;20024;-75
2024/03/16 05:23:45;;;;;;;19.98;9.80;;;;;;;9.70;100.00;100683.38;6145104;23;20064;-75
2024/03/16 05:26:14;;;;;;;25.73;8.80;;;;;;;9.67;100.00;100677.75;6145253;23;20021;-73
2024/03/16 05:28:40;;;;;;;18.05;8.80;;;;;;;9.66;100.00;100679.63;6144594;23;20100;-76
2024/03/16 05:31:10;;;;;;;25.83;10.65;;;;;;;9.61;100.00;100684.94;6144755;23;20017;-74
2024/03/16 05:33:36;;;;;;;20.92;9.15;;;;;;;9.60;100.00;100687.88;6144053;23;20088;-73
2024/03/16 05:36:02;;;;;;;21.23;9.43;;;;;;;9.57;100.00;100697.25;6120364;23;20084;-76
2024/03/16 05:38:28;;;;;;;14.45;7.47;;;;;;;9.57;100.00;100692.72;6119190;23;20471;-73
2024/03/16 05:40:55;;;;;;;17.92;7.70;;;;;;;9.56;100.00;100704.47;6121252;23;20025;-76
2024/03/16 05:43:23;;;;;;;19.45;7.05;;;;;;;9.57;100.00;100713.28;6144923;23;20310;-74
2024/03/16 05:45:50;;;;;;;13.77;5.97;;;;;;;9.60;100.00;100738.69;6146053;23;20020;-74
2024/03/16 05:48:17;;;;;;;19.70;7.65;;;;;;;9.57;100.00;100756.06;6143605;23;20048;-74
2024/03/16 05:50:44;;;;;;;16.42;6.65;;;;;;;9.56;100.00;100760.63;6121089;23;20021;-73
2024/03/16 05:53:12;;;;;;;17.33;6.38;;;;;;;9.49;100.00;100765.41;6119517;23;20017;-76
2024/03/16 05:55:38;;;;;;;7.72;3.20;;;;;;;9.33;100.00;100774.41;6120684;23;20013;-74
2024/03/16 05:58:05;;;;;;;5.38;2.17;;;;;;;9.20;100.00;100775.66;6144248;23;20010;-76
2024/03/16 06:00:31;;;;;;;4.15;2.45;;;;;;;9.16;100.00;100795.16;6100400;23;20016;-75
2024/03/16 06:02:58;;;;;;;4.90;1.95;;;;;;;9.06;100.00;100789.75;6150304;23;20016;-75
2024/03/16 06:05:24;;;;;;;4.40;1.60;;;;;;;8.98;100.00;100799.06;6125655;23;20013;-75
2024/03/16 06:07:49;;;;;;;4.43;1.73;;;;;;;8.82;100.00;100800.84;6101406;23;20455;-76
2024/03/16 06:10:15;;;;;;;2.92;1.30;;;;;;;8.80;100.00;100808.28;6126168;23;20041;-77
2024/03/16 06:12:41;;;;;;;4.22;1.60;;;;;;;8.78;100.00;100806.94;6124447;23;20024;-73
2024/03/16 06:15:08;;;;;;;3.38;1.90;;;;;;;8.67;100.00;100809.53;6125600;23;20107;-74
2024/03/16 06:17:34;;;;;;;5.90;2.55;;;;;;;8.66;100.00;100815.91;6148475;23;20017;-74
2024/03/16 06:20:00;;;;;;;5.57;1.88;;;;;;;8.59;100.00;100823.31;6176805;23;20013;-73
2024/03/16 06:22:26;;;;;;;4.55;2.30;;;;;;;8.52;100.00;100827.25;6175088;23;20013;-75
2024/03/16 06:24:52;;;;;;;4.38;2.33;;;;;;;8.51;100.00;100839.00;6125472;23;20013;-75
2024/03/16 06:27:21;;;;;;;3.60;2.30;;;;;;;8.46;100.00;100843.22;6149007;23;20020;-75
2024/03/16 06:29:52;;;;;;;5.57;2.50;;;;;;;8.45;100.00;100854.97;6126245;23;20109;-75
2024/03/16 06:32:21;;;;;;;4.80;2.80;;;;;;;8.41;100.00;100859.22;6124728;23;20024;-73
2024/03/16 06:34:50;;;;;;;4.88;2.80;;;;;;;8.41;100.00;100858.41;6149423;23;20017;-75
2024/03/16 06:37:19;;;;;;;6.50;2.95;;;;;;;8.43;100.00;100864.28;6124288;23;20012;-76
2024/03/16 06:39:48;;;;;;;5.85;3.40;;;;;;;8.43;100.00;100869.63;6151060;23;20082;-74
2024/03/16 06:42:13;;;;;;;7.03;3.33;;;;;;;8.38;100.00;100881.06;6125043;23;20012;-75
2024/03/16 06:44:39;;;;;;;6.88;3.40;;;;;;;8.37;100.00;100879.44;6149402;23;20028;-74
2024/03/16 06:47:06;;;;;;;7.03;3.55;;;;;;;8.38;100.00;100902.41;6124258;23;20840;-74
2024/03/16 06:49:32;;;;;;;7.15;3.67;;;;;;;8.38;100.00;100894.41;6149171;23;20020;-75
2024/03/16 06:51:58;;;;;;;12.07;3.72;;;;;;;8.38;100.00;100912.28;6124532;23;20016;-74
2024/03/16 06:54:23;;;;;;;7.22;3.25;;;;;;;8.29;100.00;100919.91;6124279;23;20016;-74
2024/03/16 06:56:49;;;;;;;8.32;3.00;;;;;;;8.23;100.00;100920.88;6176124;23;20063;-74
2024/03/16 06:59:14;;;;;;;9.10;2.90;;;;;;;8.11;100.00;100926.34;6147897;23;20494;-75
2024/03/16 07:01:40;;;;;;;5.40;2.67;;;;;;;8.10;100.00;100937.28;6119771;23;20526;-73
2024/03/16 07:04:06;;;;;;;6.25;2.67;;;;;;;8.06;100.00;100946.81;6124210;23;20016;-74
2024/03/16 07:06:31;;;;;;;7.20;2.88;;;;;;;8.00;100.00;100953.97;6147755;23;20028;-73
2024/03/16 07:09:01;;;;;;;8.30;2.83;;;;;;;7.87;100.00;100963.13;6123970;23;20459;-74
2024/03/16 07:11:27;;;;;;;5.05;2.60;;;;;;;7.89;100.00;100963.69;6100075;23;20025;-74
2024/03/16 07:13:53;;;;;;;11.23;3.33;;;;;;;7.88;100.00;100978.06;6099117;23;20593;-76
2024/03/16 07:16:21;;;;;;;9.60;3.60;;;;;;;7.85;100.00;100972.41;6149235;23;20040;-74
2024/03/16 07:18:47;;;;;;;10.45;3.90;;;;;;;7.78;100.00;100977.09;6148490;23;20465;-73
2024/03/16 07:21:19;;;;;;;;;;;;;;;7.76;100.00;100996.03;6148537;23;20013;-74
2024/03/16 07:23:48;;;;;;;6.03;2.90;;;;;;;7.66;100.00;101001.22;6123030;23;19972;-73
2024/03/16 07:26:14;;;;;;;9.57;2.78;;;;;;;7.64;100.00;101012.09;6148611;23;20023;-74
2024/03/16 07:28:40;;;;;;;6.43;3.38;;;;;;;7.63;100.00;101015.81;6147075;23;20100;-74
2024/03/16 07:31:06;;;;;;;6.22;2.80;;;;;;;7.63;100.00;101028.34;6098772;23;20080;-73
2024/03/16 07:33:34;;;;;;;6.85;2.72;;;;;;;7.58;100.00;101042.38;6148535;23;20471;-74
2024/03/16 07:36:01;;;;;;;10.65;2.42;;;;;;;7.51;100.00;101046.25;6148693;23;20012;-74
2024/03/16 07:38:27;;;;;;;5.78;1.92;;;;;;;7.51;100.00;101046.25;6146746;23;20017;-74
2024/03/16 07:40:53;;;;;;;9.82;2.22;;;;;;;7.52;100.00;101048.72;6149538;23;20013;-74
2024/03/16 07:43:20;;;;;;;12.00;2.10;;;;;;;7.49;100.00;101064.34;6123158;23;20017;-75
2024/03/16 07:45:49;;;;;;;8.75;1.83;;;;;;;7.43;100.00;101070.66;6148377;23;20025;-74
2024/03/16 07:48:15;;;;;;;12.77;1.88;;;;;;;7.42;100.00;101077.03;6147893;23;20024;-73
2024/03/16 07:50:40;;;;;;;10.95;2.30;;;;;;;7.41;100.00;101088.75;6148413;23;20347;-73
2024/03/16 07:53:06;;;;;;;10.65;2.22;;;;;;;7.37;100.00;101086.53;6122975;23;20036;-74
2024/03/16 07:55:33;;;;;;;14.98;2.75;;;;;;;7.25;100.00;101099.13;6123133;23;20017;-73
2024/03/16 07:57:58;;;;;;;11.15;1.95;;;;;;;7.27;100.00;101113.00;6123423;23;20012;-73
2024/03/16 08:00:24;;;;;;;15.85;2.30;;;;;;;7.24;100.00;101102.81;6126419;23;20095;-76
2024/03/16 08:02:50;;;;;;;10.10;2.38;;;;;;;7.19;100.00;101121.38;6125767;23;20336;-75
2024/03/16 08:05:15;;;;;;;16.00;2.92;;;;;;;7.20;100.00;101124.88;6150418;23;20024;-75
2024/03/16 08:07:41;;;;;;;12.98;2.85;;;;;;;7.19;100.00;101124.06;6124874;23;20009;-75
2024/03/16 08:10:09;;;;;;;11.68;2.42;;;;;;;7.20;100.00;101140.84;6150562;23;20016;-75
2024/03/16 08:12:36;;;;;;;10.55;2.50;;;;;;;7.21;100.00;101137.94;6149979;23;20012;-75
2024/03/16 08:15:02;;;;;;;;;;;;;;;7.17;100.00;101149.28;6126344;23;20016;-75
2024/03/16 08:17:28;;;;;;;11.38;2.42;;;;;;;7.11;100.00;101151.03;6148860;23;20227;-76
2024/03/16 08:19:55;;;;;;;10.23;1.85;;;;;;;7.10;100.00;101162.75;6150851;23;20012;-75
2024/03/16 08:22:21;;;;;;;11.20;2.20;;;;;;;7.02;100.00;101165.78;6150678;23;20012;-76
2024/03/16 08:24:47;;;;;;;6.07;2.00;;;;;;;7.03;100.00;101168.19;6176249;23;20009;-74
2024/03/16 08:27:14;;;;;;;10.13;1.67;;;;;;;7.11;100.00;101183.00;6148504;23;20024;-74
2024/03/16 08:29:39;;;;;;;12.00;2.08;;;;;;;7.05;100.00;101178.66;6124367;23;20103;-73
2024/03/16 08:32:05;;;;;;;6.63;1.35;;;;;;;7.04;100.00;101187.66;6100746;23;20013;-73
2024/03/16 08:34:31;;;;;;;4.75;1.75;;;;;;;7.02;100.00;101187.91;6125602;23;20017;-76
2024/03/16 08:36:57;;;;;;;10.68;1.75;;;;;;;7.07;100.00;101189.88;6149513;23;20021;-74
2024/03/16 08:39:26;;;;;;;6.97;1.50;;;;;;;7.10;100.00;101200.03;6125824;23;20021;-75
2024/03/16 08:41:53;;;;;;;7.32;1.17;;;;;;;7.12;100.00;101187.31;6126048;23;20123;-73
2024/03/16 08:44:20;;;;;;;5.35;1.30;;;;;;;7.17;100.00;101203.38;6151519;23;20005;-74
2024/03/16 08:46:45;;;;;;;5.90;1.95;;;;;;;7.18;100.00;101198.84;6124372;23;20518;-75
2024/03/16 08:49:11;;;;;;;8.55;1.83;;;;;;;7.18;100.00;101207.69;6174894;23;20055;-74
2024/03/16 08:51:37;;;;;;;7.75;2.30;;;;;;;7.24;100.00;101222.69;6125310;23;20013;-76
2024/03/16 08:54:05;;;;;;;13.95;1.95;;;;;;;7.29;100.00;101225.47;6149477;23;20024;-73
2024/03/16 08:56:31;;;;;;;10.13;1.77;;;;;;;7.32;100.00;101233.00;6149933;23;20019;-75
2024/03/16 08:58:57;;;;;;;4.72;1.30;;;;;;;7.31;100.00;101238.53;6125164;23;20017;-74
2024/03/16 09:01:23;;;;;;;8.00;1.30;;;;;;;7.30;100.00;101236.94;6126328;23;20045;-76
2024/03/16 09:03:49;;;;;;;4.30;1.23;;;;;;;7.25;100.00;101236.84;6125213;23;20017;-76
2024/03/16 09:06:15;;;;;;;6.72;1.65;;;;;;;7.27;100.00;101248.88;6100764;23;20017;-73
2024/03/16 09:08:40;;;;;;;9.65;1.67;;;;;;;7.27;100.00;101259.53;6123745;23;20013;-72
2024/03/16 09:11:06;;;;;;;6.80;1.60;;;;;;;7.23;100.00;101255.72;6101457;23;20537;-76
2024/03/16 09:13:33;;;;;;;7.47;1.67;;;;;;;7.20;100.00;101266.03;6124557;23;20017;-74
2024/03/16 09:16:01;;;;;;;8.15;1.40;;;;;;;7.20;100.00;101274.84;6150954;23;20084;-73
2024/03/16 09:18:27;;;;;;;6.10;1.65;;;;;;;7.19;100.00;101283.88;6175338;23;20767;-73
2024/03/16 09:20:53;;;;;;;6.13;1.38;;;;;;;7.27;100.00;101286.19;6125263;23;20028;-77
2024/03/16 09:23:18;;;;;;;;;;;;;;;7.26;100.00;101279.25;6124527;23;20063;-73
2024/03/16 09:25:44;;;;;;;5.97;1.52;;;;;;;7.36;100.00;101283.97;6124896;23;20021;-72
2024/03/16 09:28:13;;;;;;;9.15;1.90;;;;;;;7.46;100.00;101286.03;6098762;23;20017;-74
2024/03/16 09:30:39;;;;;;;6.47;1.80;;;;;;;7.52;100.00;101293.91;6149317;23;20439;-78
2024/03/16 09:33:05;;;;;;;9.10;1.42;;;;;;;7.63;100.00;101294.91;6100115;23;20016;-76
2024/03/16 09:35:31;;;;;;;;;;;;;;;7.68;100.00;101287.00;6173988;23;20020;-76
2024/03/16 09:37:57;;;;;;;9.02;1.67;;;;;;;7.75;100.00;101292.22;6122323;23;19912;-75
2024/03/16 09:40:23;;;;;;;;;;;;;;;7.86;100.00;101300.19;6175129;23;20067;-75
2024/03/16 09:42:48;;;;;;;5.95;1.90;;;;;;;7.98;100.00;101296.63;6123460;23;19916;-74
2024/03/16 09:45:18;;;;;;;5.85;1.10;;;;;;;8.07;100.00;101308.56;6149746;23;20017;-75
2024/03/16 09:47:47;;;;;;;7.40;1.58;;;;;;;8.09;100.00;101309.13;6099436;23;20017;-75
2024/03/16 09:50:14;;;;;;;7.72;1.48;;;;;;;8.17;100.00;101301.53;6149781;23;20506;-73
2024/03/16 09:52:43;;;;;;;6.78;1.30;;;;;;;8.21;100.00;101302.69;6124529;23;20017;-73
2024/03/16 09:55:09;;;;;;;5.90;1.45;;;;;;;8.23;100.00;101318.44;6174512;23;20013;-76
2024/03/16 09:57:38;;;;;;;8.40;1.55;;;;;;;8.23;100.00;101323.78;6123166;23;20066;-76
2024/03/16 10:00:10;;;;;;;6.15;1.20;;;;;;;8.11;100.00;101333.69;6149750;23;20017;-75
2024/03/16 10:02:39;;;;;;;6.80;1.65;;;;;;;8.02;100.00;101341.28;6144222;23;20662;-76
2024/03/16 10:05:05;;;;;;;6.85;1.25;;;;;;;7.94;100.00;101350.47;6123139;23;20020;-74
2024/03/16 10:07:31;;;;;;;8.43;1.67;;;;;;;7.89;100.00;101369.03;6147195;23;20017;-73
2024/03/16 10:09:57;;;;;;;6.25;1.15;;;;;;;7.85;100.00;101367.06;6175196;23;20096;-74
2024/03/16 10:12:23;;;;;;;5.40;1.00;;;;;;;7.76;100.00;101374.63;6148766;23;20128;-75
2024/03/16 10:15:08;;;;;;;8.30;2.00;;;;;;;7.59;100.00;101387.88;6123750;23;20103;-74
2024/03/16 10:17:38;;;;;;;9.95;1.88;;;;;;;7.65;100.00;101384.28;6172905;23;20519;-75
2024/03/16 10:20:16;;;;;;;6.88;1.45;;;;;;;7.73;100.00;101382.28;6098952;23;20538;-75
2024/03/16 10:22:44;;;;;;;5.38;1.88;;;;;;;7.84;100.00;101398.25;6146794;23;20092;-73
2024/03/16 10:25:10;;;;;;;5.72;1.50;;;;;;;7.92;100.00;101397.91;6147404;23;20009;-74
2024/03/16 10:27:39;;;;;;;9.02;1.63;;;;;;;8.00;100.00;101385.25;6098189;23;20095;-76
2024/03/16 10:30:12;;;;;;;5.68;1.20;;;;;;;8.21;100.00;101400.59;6151093;23;20021;-74
2024/03/16 10:32:44;;;;;;;5.53;1.75;;;;;;;8.48;100.00;101392.84;6149653;23;20017;-75
2024/03/16 10:35:18;;;;;;;6.78;1.73;;;;;;;8.52;100.00;101393.97;6126052;23;20021;-75
2024/03/16 10:37:45;;;;;;;5.40;1.48;;;;;;;8.51;100.00;101405.72;6150359;23;20024;-77
2024/03/16 10:40:21;;;;;;;7.82;1.52;;;;;;;8.49;100.00;101405.16;6150279;23;20013;-75
2024/03/16 10:42:50;;;;;;;5.35;1.75;;;;;;;8.51;100.00;101412.91;6148523;23;20024;-75
2024/03/16 10:45:17;;;;;;;4.47;1.20;;;;;;;8.38;100.00;101420.16;6100829;23;20053;-74
2024/03/16 10:47:53;;;;;;;5.55;1.50;;;;;;;8.41;100.00;101441.06;6099831;23;20020;-74
2024/03/16 10:50:21;;;;;;;6.70;1.33;;;;;;;8.63;100.00;101430.50;6149126;23;20076;-74
2024/03/16 10:52:48;;;;;;;8.13;1.55;;;;;;;8.78;100.00;101424.63;6123611;23;20099;-75
2024/03/16 10:55:24;;;;;;;7.70;1.77;;;;;;;8.90;100.00;101444.06;6125240;23;20096;-77
2024/03/16 10:57:54;;;;;;;9.25;1.70;;;;;;;8.90;100.00;101449.41;6148648;23;20023;-73
2024/03/16 11:00:20;;;;;;;12.27;2.63;;;;;;;8.95;100.00;101440.69;6176224;23;20023;-75
2024/03/16 11:02:59;;;;;;;10.77;1.88;;;;;;;9.08;100.00;101444.88;6148877;23;20024;-74
2024/03/16 11:05:33;;;;;;;11.05;1.60;;;;;;;9.07;100.00;101448.59;6126112;23;20017;-76
2024/03/16 11:08:02;;;;;;;6.70;1.35;;;;;;;9.05;100.00;101451.53;6125192;23;20059;-80
2024/03/16 11:10:42;;;;;;;6.53;1.40;;;;;;;9.14;100.00;101449.25;6125846;23;20048;-78
2024/03/16 11:13:17;;;;;;;7.50;1.58;;;;;;;9.29;100.00;101452.19;6099066;23;20075;-78
2024/03/16 11:15:47;;;;;;;5.05;1.67;;;;;;;9.46;100.00;101463.66;6149643;23;20080;-76
2024/03/16 11:18:16;;;;;;;6.00;1.17;;;;;;;9.58;100.00;101472.41;6118314;23;20017;-76
2024/03/16 11:20:43;;;;;;;9.13;1.42;;;;;;;9.73;100.00;101477.19;6124515;23;20012;-77